Time;durP1;ratioP1;P1;durP2;ratioP2;P2;SDS_P1;SDS_P2;PMS_P1;PMS_P2;Temp;Humidity;BMP_temperature;BMP_pressure;BME280_temperature;BME280_humidity;BME280_pressure;Samples;Min_cycle;Max_cycle;Signal;HPM_P1;HPM_P2
2023/03/03 00:03:04;;;;;;;15.27;9.33;;;;;;;6.90;70.49;102404.72;6235363;28;20231;-75
2023/03/03 00:06:25;;;;;;;8.97;7.83;;;;;;;6.97;70.93;102411.50;6248286;28;20228;-74
2023/03/03 00:09:46;;;;;;;10.43;9.00;;;;;;;6.77;70.77;102400.88;6234227;28;20252;-74
2023/03/03 00:13:16;;;;;;;13.17;9.40;;;;;;;6.80;71.73;102411.47;6223160;28;20224;-74
2023/03/03 00:16:38;;;;;;;14.77;8.93;;;;;;;6.50;73.29;102400.41;6238080;28;20235;-75
2023/03/03 00:19:59;;;;;;;16.47;12.03;;;;;;;6.55;73.81;102403.72;6235085;28;20862;-75
2023/03/03 00:23:27;;;;;;;18.57;10.57;;;;;;;6.69;73.45;102405.75;6234987;28;20316;-74
2023/03/03 00:26:49;;;;;;;10.80;8.70;;;;;;;6.66;73.69;102403.22;6236375;28;20524;-74
2023/03/03 00:30:23;;;;;;;13.90;9.00;;;;;;;6.35;74.41;102401.13;6241442;28;20934;-75
2023/03/03 00:33:49;;;;;;;10.47;9.43;;;;;;;6.28;75.24;102396.97;6229091;28;20231;-76
2023/03/03 00:37:25;;;;;;;15.57;10.00;;;;;;;6.08;77.43;102395.25;6245031;28;20310;-75
2023/03/03 00:40:47;;;;;;;13.30;10.07;;;;;;;6.62;75.56;102406.97;6244574;28;20236;-74
2023/03/03 00:44:38;;;;;;;12.37;10.47;;;;;;;6.86;73.90;102406.66;6240107;28;20232;-75
2023/03/03 00:48:10;;;;;;;17.07;10.23;;;;;;;6.86;74.11;102411.19;6250817;28;20224;-75
2023/03/03 00:51:34;;;;;;;11.00;7.63;;;;;;;6.72;74.15;102406.47;6229805;28;20319;-74
2023/03/03 00:54:55;;;;;;;11.33;7.77;;;;;;;6.83;74.57;102405.94;6244888;28;20232;-74
2023/03/03 00:58:17;;;;;;;14.47;10.03;;;;;;;6.95;73.66;102405.34;6226475;28;20239;-75
2023/03/03 01:01:40;;;;;;;14.73;8.87;;;;;;;6.57;74.36;102406.34;6242300;28;20605;-75
2023/03/03 01:05:03;;;;;;;12.87;10.00;;;;;;;6.62;74.49;102402.50;6245781;28;20233;-75
2023/03/03 01:08:24;;;;;;;10.63;9.47;;;;;;;6.64;75.05;102399.75;6249783;28;20232;-74
2023/03/03 01:11:44;;;;;;;13.77;9.57;;;;;;;6.85;73.73;102401.38;6237629;28;20585;-75
2023/03/03 01:15:08;;;;;;;12.27;9.13;;;;;;;6.76;73.75;102400.00;6244601;28;20227;-74
2023/03/03 01:18:30;;;;;;;13.30;8.13;;;;;;;6.80;73.56;102398.06;6232882;28;21822;-75
2023/03/03 01:21:52;;;;;;;17.70;8.50;;;;;;;6.65;73.67;102401.50;6252890;28;20224;-74
2023/03/03 01:25:13;;;;;;;17.53;10.07;;;;;;;6.52;74.66;102390.50;6239663;28;20712;-75
2023/03/03 01:28:34;;;;;;;9.97;7.80;;;;;;;6.50;74.88;102388.81;6242367;28;20219;-74
2023/03/03 01:31:55;;;;;;;9.90;8.20;;;;;;;6.71;74.14;102380.63;6246822;28;20244;-76
2023/03/03 01:35:16;;;;;;;11.17;8.47;;;;;;;6.47;73.95;102375.59;6253536;28;20239;-75
2023/03/03 01:38:39;;;;;;;9.53;7.47;;;;;;;6.36;74.55;102374.25;6245472;28;20267;-74
2023/03/03 01:42:00;;;;;;;12.50;8.17;;;;;;;6.20;75.41;102375.06;6229310;28;20264;-74
2023/03/03 01:45:23;;;;;;;12.17;8.13;;;;;;;6.29;75.07;102374.63;6230837;28;20232;-75
2023/03/03 01:48:45;;;;;;;10.90;8.40;;;;;;;6.54;74.47;102372.53;6250200;28;20259;-75
2023/03/03 01:52:14;;;;;;;11.43;8.07;;;;;;;6.45;74.20;102365.81;6245341;28;20370;-74
2023/03/03 01:55:39;;;;;;;9.23;8.33;;;;;;;6.30;74.83;102366.53;6247516;28;20227;-74
2023/03/03 01:59:03;;;;;;;12.63;8.63;;;;;;;6.31;74.98;102368.28;6238704;28;20258;-74
2023/03/03 02:02:26;;;;;;;12.87;8.27;;;;;;;6.20;74.58;102365.22;6248703;28;20311;-74
2023/03/03 02:05:49;;;;;;;14.23;7.57;;;;;;;6.37;75.27;102359.06;6225580;28;20374;-75
2023/03/03 02:09:16;;;;;;;13.57;9.57;;;;;;;6.52;74.25;102371.75;6224467;28;20228;-74
2023/03/03 02:12:42;;;;;;;17.63;8.03;;;;;;;5.75;77.28;102366.44;6245572;28;20219;-74
2023/03/03 02:16:03;;;;;;;13.23;8.23;;;;;;;6.12;76.18;102359.38;6245669;28;20266;-75
2023/03/03 02:19:31;;;;;;;13.77;9.67;;;;;;;6.36;74.74;102362.72;6249329;28;20232;-74
2023/03/03 02:22:58;;;;;;;12.93;9.20;;;;;;;6.23;75.02;102364.22;6253192;28;20798;-75
2023/03/03 02:26:23;;;;;;;11.00;6.90;;;;;;;6.50;73.79;102368.28;6246470;28;20668;-75
2023/03/03 02:29:48;;;;;;;12.97;7.27;;;;;;;6.47;74.05;102363.91;6247320;28;20235;-75
2023/03/03 02:33:10;;;;;;;10.80;8.77;;;;;;;6.52;73.41;102368.19;6238619;28;20232;-74
2023/03/03 02:36:33;;;;;;;12.23;8.67;;;;;;;6.06;74.78;102364.13;6242300;28;20224;-75
2023/03/03 02:39:54;;;;;;;11.83;7.17;;;;;;;5.90;75.53;102374.69;6238666;28;20306;-74
2023/03/03 02:43:20;;;;;;;10.13;7.47;;;;;;;6.31;74.46;102365.59;6245395;28;20759;-74
2023/03/03 02:46:43;;;;;;;7.90;7.17;;;;;;;6.18;74.07;102361.75;6232877;28;20239;-74
2023/03/03 02:50:05;;;;;;;12.30;7.80;;;;;;;6.06;74.05;102358.78;6239093;28;20784;-74
2023/03/03 02:53:25;;;;;;;10.50;6.83;;;;;;;5.80;74.29;102359.09;6223045;28;20520;-74
2023/03/03 02:56:47;;;;;;;11.63;8.27;;;;;;;5.08;77.64;102363.16;6219883;28;20231;-75
2023/03/03 03:00:11;;;;;;;9.67;7.40;;;;;;;5.58;76.44;102376.09;6229725;28;20229;-75
2023/03/03 03:03:32;;;;;;;6.53;5.83;;;;;;;5.90;75.49;102371.13;6229293;28;20228;-75
2023/03/03 03:06:56;;;;;;;8.40;6.93;;;;;;;5.61;76.29;102380.44;6235689;28;20635;-74
2023/03/03 03:10:20;;;;;;;8.43;6.90;;;;;;;5.22;77.35;102383.00;6232849;28;20822;-74
2023/03/03 03:13:41;;;;;;;9.57;6.30;;;;;;;5.48;76.31;102395.28;6240975;28;20231;-75
2023/03/03 03:17:03;;;;;;;9.67;7.47;;;;;;;5.69;75.34;102392.50;6213417;28;20228;-74
2023/03/03 03:20:24;;;;;;;11.20;6.80;;;;;;;5.93;74.63;102390.59;6237498;28;20219;-74
2023/03/03 03:23:46;;;;;;;8.60;5.47;;;;;;;5.94;73.63;102383.44;6233145;28;20224;-75
2023/03/03 03:27:08;;;;;;;8.20;7.40;;;;;;;5.54;74.58;102384.31;6225366;28;20235;-73
2023/03/03 03:30:29;;;;;;;6.73;5.73;;;;;;;5.81;74.16;102387.56;6232742;28;20698;-74
2023/03/03 03:33:51;;;;;;;7.37;5.97;;;;;;;5.79;74.33;102384.09;6234155;28;20227;-74
2023/03/03 03:37:14;;;;;;;10.53;7.27;;;;;;;5.76;73.92;102370.88;6234805;28;20605;-74
2023/03/03 03:40:36;;;;;;;7.27;6.57;;;;;;;5.27;74.93;102381.03;6254650;28;20228;-73
2023/03/03 03:43:57;;;;;;;5.60;4.70;;;;;;;5.57;75.00;102379.69;6244365;28;20241;-74
2023/03/03 03:47:18;;;;;;;10.27;6.60;;;;;;;5.78;74.08;102387.72;6224180;28;20248;-74
2023/03/03 03:50:40;;;;;;;8.93;6.73;;;;;;;5.97;72.92;102381.47;6235349;28;20236;-75
2023/03/03 03:54:02;;;;;;;8.40;6.77;;;;;;;6.02;72.67;102384.81;6238924;28;20747;-74
2023/03/03 03:57:23;;;;;;;7.87;7.07;;;;;;;5.67;73.71;102378.34;6224011;28;20323;-74
2023/03/03 04:00:45;;;;;;;7.37;6.37;;;;;;;5.15;75.02;102372.66;6244695;28;20507;-74
2023/03/03 04:04:07;;;;;;;8.23;6.47;;;;;;;5.16;76.50;102374.38;6249347;28;20432;-74
2023/03/03 04:07:30;;;;;;;9.73;6.63;;;;;;;5.52;74.45;102364.78;6227975;28;20236;-74
2023/03/03 04:10:51;;;;;;;9.20;6.60;;;;;;;5.50;74.63;102366.66;6237105;28;20220;-74
2023/03/03 04:14:12;;;;;;;9.23;7.03;;;;;;;5.56;74.68;102358.38;6225260;28;20229;-73
2023/03/03 04:17:32;;;;;;;8.77;6.77;;;;;;;5.52;73.79;102356.75;6236918;28;20231;-73
2023/03/03 04:20:54;;;;;;;7.57;6.67;;;;;;;5.63;73.94;102363.34;6218976;28;20228;-74
2023/03/03 04:24:18;;;;;;;13.50;7.53;;;;;;;5.32;74.50;102360.28;6231923;28;20303;-74
2023/03/03 04:27:39;;;;;;;8.03;6.37;;;;;;;4.92;76.42;102370.09;6241086;28;20915;-75
2023/03/03 04:31:01;;;;;;;15.17;6.40;;;;;;;3.58;82.47;102370.88;6223950;28;20501;-74
2023/03/03 04:34:24;;;;;;;10.47;6.47;;;;;;;4.29;80.54;102373.53;6230758;28;20404;-73
2023/03/03 04:37:45;;;;;;;11.53;6.30;;;;;;;3.53;83.26;102373.72;6229415;28;20518;-74
2023/03/03 04:41:08;;;;;;;9.70;7.40;;;;;;;4.14;81.81;102372.31;6214211;28;20299;-72
2023/03/03 04:44:32;;;;;;;8.27;6.70;;;;;;;4.50;80.95;102368.22;6249691;28;20234;-73
2023/03/03 04:47:53;;;;;;;6.97;6.07;;;;;;;4.37;80.45;102366.97;6237308;28;20605;-74
2023/03/03 04:51:15;;;;;;;10.23;6.13;;;;;;;3.56;83.04;102370.94;6229693;28;20236;-75
2023/03/03 04:54:36;;;;;;;6.27;5.33;;;;;;;4.21;81.69;102376.50;6252217;28;20310;-74
2023/03/03 04:57:58;;;;;;;11.47;5.40;;;;;;;4.68;79.66;102375.50;6239795;28;20601;-74
2023/03/03 05:01:20;;;;;;;8.10;5.83;;;;;;;4.71;78.30;102375.34;6238195;28;20288;-74
2023/03/03 05:04:41;;;;;;;7.03;5.70;;;;;;;5.16;77.39;102372.59;6227645;28;20229;-74
2023/03/03 05:08:02;;;;;;;6.83;5.83;;;;;;;5.33;77.16;102374.53;6237594;28;20239;-74
2023/03/03 05:11:22;;;;;;;6.73;5.50;;;;;;;5.43;75.81;102373.19;6211729;28;20673;-74
2023/03/03 05:14:44;;;;;;;7.40;6.63;;;;;;;5.60;75.22;102368.00;6252095;28;20235;-75
2023/03/03 05:18:05;;;;;;;5.70;4.97;;;;;;;5.84;74.66;102369.59;6241247;28;20665;-74
2023/03/03 05:21:26;;;;;;;7.07;4.93;;;;;;;5.76;74.36;102368.19;6228732;28;20280;-75
2023/03/03 05:24:48;;;;;;;8.37;6.13;;;;;;;5.54;75.05;102374.50;6248895;28;20327;-74
2023/03/03 05:28:10;;;;;;;9.47;5.97;;;;;;;5.47;75.17;102375.69;6235266;28;20489;-75
2023/03/03 05:31:32;;;;;;;8.93;7.07;;;;;;;5.67;74.22;102372.97;6232155;28;20232;-74
2023/03/03 05:34:53;;;;;;;8.17;6.07;;;;;;;5.87;73.53;102364.09;6250943;28;20530;-75
2023/03/03 05:38:13;;;;;;;9.27;7.03;;;;;;;5.92;72.63;102367.47;6238291;28;20237;-74
2023/03/03 05:41:35;;;;;;;5.97;5.43;;;;;;;5.57;74.23;102371.66;6224807;28;21094;-75
2023/03/03 05:44:56;;;;;;;10.43;6.57;;;;;;;4.83;77.01;102374.88;6248202;28;20235;-74
2023/03/03 05:48:18;;;;;;;10.90;7.97;;;;;;;4.64;78.84;102389.91;6238038;28;20335;-74
2023/03/03 05:51:39;;;;;;;9.30;6.73;;;;;;;4.09;81.19;102392.09;6196638;28;20512;-73
2023/03/03 05:55:00;;;;;;;8.03;5.97;;;;;;;4.65;79.97;102396.97;6234828;28;20315;-74
2023/03/03 05:58:21;;;;;;;11.13;7.93;;;;;;;4.83;79.11;102387.34;6235270;28;20232;-74
2023/03/03 06:01:42;;;;;;;14.50;8.97;;;;;;;4.83;79.26;102387.34;6225288;28;20223;-75
2023/03/03 06:05:05;;;;;;;11.57;6.93;;;;;;;4.49;80.42;102384.28;6251786;28;20240;-75
2023/03/03 06:08:26;;;;;;;9.83;5.80;;;;;;;4.70;79.48;102380.75;6242813;28;20382;-73
2023/03/03 06:11:47;;;;;;;11.53;7.63;;;;;;;5.08;78.63;102377.38;6232252;28;20225;-74
2023/03/03 06:15:09;;;;;;;9.83;8.07;;;;;;;5.43;76.58;102394.59;6245136;28;20601;-74
2023/03/03 06:18:30;;;;;;;11.77;9.30;;;;;;;5.43;76.57;102394.59;6246667;28;20442;-75
2023/03/03 06:21:53;;;;;;;10.43;8.37;;;;;;;5.53;76.31;102406.63;6239411;28;20839;-76
2023/03/03 06:25:14;;;;;;;13.47;8.90;;;;;;;5.75;75.17;102402.09;6255581;28;20232;-74
2023/03/03 06:28:34;;;;;;;10.30;7.27;;;;;;;5.78;74.52;102414.47;6238029;28;20236;-75
2023/03/03 06:31:55;;;;;;;9.03;7.57;;;;;;;5.89;74.54;102402.38;6238505;28;20232;-75
2023/03/03 06:35:17;;;;;;;14.33;8.37;;;;;;;6.03;73.57;102409.78;6247875;28;20231;-74
2023/03/03 06:38:39;;;;;;;14.63;8.47;;;;;;;6.03;73.22;102402.59;6228963;28;20237;-74
2023/03/03 06:42:00;;;;;;;9.90;7.60;;;;;;;5.69;75.49;102413.91;6230610;28;20235;-69
2023/03/03 06:45:21;;;;;;;7.13;6.30;;;;;;;6.26;76.66;102401.53;6242171;28;20228;-70
2023/03/03 06:48:42;;;;;;;12.37;7.53;;;;;;;5.88;75.40;102406.00;6227196;28;20938;-72
2023/03/03 06:52:11;;;;;;;15.13;8.90;;;;;;;6.09;74.97;102414.88;6217785;28;22368;-75
2023/03/03 06:55:34;;;;;;;15.57;8.73;;;;;;;5.96;74.87;102422.59;6226918;28;20227;-74
2023/03/03 06:58:56;;;;;;;8.67;6.90;;;;;;;6.10;74.11;102427.28;6223329;28;20232;-73
2023/03/03 07:02:19;;;;;;;16.70;9.00;;;;;;;6.12;73.73;102412.03;6236051;28;20236;-74
2023/03/03 07:05:39;;;;;;;7.53;6.47;;;;;;;6.03;73.94;102428.53;6249441;28;20227;-76
2023/03/03 07:09:00;;;;;;;17.13;6.70;;;;;;;5.83;74.39;102434.72;6235791;28;20308;-74
2023/03/03 07:12:26;;;;;;;9.53;6.37;;;;;;;5.67;74.76;102433.66;6221644;28;20228;-74
2023/03/03 07:15:47;;;;;;;11.73;5.77;;;;;;;5.51;74.84;102448.63;6235047;28;20224;-76
2023/03/03 07:19:19;;;;;;;9.03;6.73;;;;;;;5.33;76.64;102458.31;6247433;28;20223;-75
2023/03/03 07:22:39;;;;;;;5.73;4.73;;;;;;;5.58;75.69;102452.78;6229218;28;20224;-74
2023/03/03 07:26:00;;;;;;;7.60;5.40;;;;;;;5.72;75.15;102444.13;6235521;28;21946;-73
2023/03/03 07:29:25;;;;;;;8.37;6.57;;;;;;;6.17;73.39;102450.19;6248102;28;20228;-75
2023/03/03 07:32:47;;;;;;;6.93;5.13;;;;;;;5.89;74.07;102447.00;6224957;28;20250;-74
2023/03/03 07:36:25;;;;;;;7.30;5.67;;;;;;;5.89;74.71;102458.56;6220567;28;20245;-73
2023/03/03 07:39:49;;;;;;;5.93;5.23;;;;;;;5.97;74.11;102467.13;6237929;28;20232;-75
2023/03/03 07:43:30;;;;;;;6.90;4.93;;;;;;;6.13;73.48;102452.09;6222862;28;20224;-78
2023/03/03 07:46:52;;;;;;;8.10;5.50;;;;;;;6.36;72.81;102451.94;6242977;28;20219;-72
2023/03/03 07:50:16;;;;;;;5.10;4.57;;;;;;;6.25;73.07;102461.41;6251625;28;20476;-74
2023/03/03 07:53:37;;;;;;;7.17;6.47;;;;;;;5.89;73.92;102463.03;6244360;28;20232;-69
2023/03/03 07:57:06;;;;;;;5.20;4.30;;;;;;;6.32;72.78;102457.53;6243888;28;20228;-73
2023/03/03 08:01:12;;;;;;;6.97;5.60;;;;;;;5.97;74.28;102453.75;6239601;28;20252;-70
2023/03/03 08:04:40;;;;;;;5.40;4.63;;;;;;;6.17;73.79;102447.50;6240407;28;20240;-72
2023/03/03 08:08:18;;;;;;;7.83;5.07;;;;;;;6.50;72.79;102455.78;6236957;28;20231;-72
2023/03/03 08:11:47;;;;;;;7.07;5.23;;;;;;;5.71;75.13;102454.00;6241383;28;20259;-70
2023/03/03 08:15:18;;;;;;;5.77;4.57;;;;;;;6.16;74.53;102448.44;6230479;28;20227;-71
2023/03/03 08:18:43;;;;;;;6.20;4.97;;;;;;;6.36;73.26;102457.28;6222883;28;20529;-71
2023/03/03 08:22:14;;;;;;;9.17;5.70;;;;;;;6.02;73.49;102448.19;6227748;28;20233;-71
2023/03/03 08:25:35;;;;;;;5.90;5.30;;;;;;;6.14;74.20;102456.53;6259861;28;20223;-72
2023/03/03 08:28:56;;;;;;;6.93;4.67;;;;;;;6.18;73.80;102452.78;6223139;28;20232;-73
2023/03/03 08:32:17;;;;;;;8.07;5.67;;;;;;;5.85;75.63;102450.75;6228658;28;20239;-71
2023/03/03 08:35:38;;;;;;;7.33;6.07;;;;;;;6.25;74.18;102440.88;6253493;28;20231;-74
2023/03/03 08:39:01;;;;;;;7.80;5.20;;;;;;;6.27;73.50;102439.00;6243234;28;20237;-74
2023/03/03 08:42:21;;;;;;;6.93;5.37;;;;;;;6.14;74.82;102439.59;6532275;22;20522;-74
2023/03/03 08:45:42;;;;;;;8.03;5.87;;;;;;;6.24;74.25;102436.44;6245437;28;20231;-74
2023/03/03 08:49:03;;;;;;;9.00;6.17;;;;;;;6.21;74.83;102431.25;6257613;28;20231;-75
2023/03/03 08:52:25;;;;;;;6.63;5.40;;;;;;;6.63;72.76;102436.41;6249394;28;20223;-74
2023/03/03 08:55:48;;;;;;;9.07;5.73;;;;;;;5.22;79.71;102443.63;6251397;28;20219;-72
2023/03/03 08:59:09;;;;;;;8.20;6.83;;;;;;;5.45;79.52;102440.84;6256035;28;20488;-72
2023/03/03 09:02:30;;;;;;;10.17;7.43;;;;;;;6.13;77.36;102435.19;6243591;28;20231;-69
2023/03/03 09:05:51;;;;;;;10.80;9.17;;;;;;;4.95;81.66;102439.41;6228994;28;20223;-74
2023/03/03 09:09:12;;;;;;;11.03;7.63;;;;;;;5.45;80.57;102447.09;6249658;28;20601;-73
2023/03/03 09:12:37;;;;;;;17.73;9.33;;;;;;;6.05;78.57;102453.41;6235621;28;20704;-69
2023/03/03 09:15:58;;;;;;;14.20;8.03;;;;;;;5.85;79.44;102456.09;6249564;28;22744;-70
2023/03/03 09:19:23;;;;;;;11.53;8.00;;;;;;;6.12;78.08;102454.88;6273124;28;20231;-71
2023/03/03 09:22:45;;;;;;;10.97;8.53;;;;;;;4.96;81.55;102466.09;6242083;28;20255;-72
2023/03/03 09:26:26;;;;;;;12.80;8.73;;;;;;;5.09;81.83;102475.31;6242726;28;20224;-70
2023/03/03 09:29:49;;;;;;;11.13;6.90;;;;;;;4.68;83.67;102471.63;6254802;28;20235;-71
2023/03/03 09:33:25;;;;;;;15.80;8.30;;;;;;;4.76;83.94;102469.53;6243717;28;20228;-70
2023/03/03 09:36:46;;;;;;;11.73;6.27;;;;;;;5.76;80.51;102464.50;6250727;28;20232;-72
2023/03/03 09:40:36;;;;;;;10.97;8.17;;;;;;;5.37;81.30;102481.31;6261130;28;20232;-75
2023/03/03 09:44:33;;;;;;;8.63;6.63;;;;;;;6.36;79.84;102469.84;6260431;28;20223;-70
2023/03/03 09:48:20;;;;;;;18.10;7.77;;;;;;;5.34;80.73;102480.56;6242405;28;20600;-72
2023/03/03 09:52:00;;;;;;;9.77;6.67;;;;;;;6.20;79.29;102479.47;6250124;28;20323;-75
2023/03/03 09:55:37;;;;;;;12.37;8.37;;;;;;;5.53;81.16;102482.38;6258573;28;20240;-73
2023/03/03 09:59:15;;;;;;;17.30;9.33;;;;;;;5.65;80.47;102479.19;6263240;28;20227;-71
2023/03/03 10:02:47;;;;;;;14.10;8.47;;;;;;;5.18;81.66;102485.66;6251349;28;20227;-74
2023/03/03 10:06:21;;;;;;;15.40;11.10;;;;;;;5.53;81.59;102478.84;6255669;28;20322;-75
2023/03/03 10:10:02;;;;;;;19.23;9.90;;;;;;;5.50;81.16;102477.19;6255953;28;20227;-72
2023/03/03 10:13:47;;;;;;;13.07;9.03;;;;;;;5.05;82.63;102488.91;6237213;28;20244;-71
2023/03/03 10:17:40;;;;;;;10.50;7.67;;;;;;;5.50;81.26;102476.31;6248626;28;20223;-74
2023/03/03 10:21:09;;;;;;;10.20;6.47;;;;;;;5.63;81.23;102473.03;6247348;28;21073;-74
2023/03/03 10:24:43;;;;;;;16.47;8.40;;;;;;;5.52;81.97;102472.66;6270424;28;20232;-73
2023/03/03 10:28:28;;;;;;;10.00;6.57;;;;;;;5.56;81.33;102468.03;6254111;28;20611;-70
2023/03/03 10:32:02;;;;;;;10.07;6.67;;;;;;;6.05;79.97;102461.44;6260154;28;20223;-71
2023/03/03 10:35:51;;;;;;;12.50;7.40;;;;;;;6.75;77.59;102457.25;6259012;28;20232;-73
2023/03/03 10:39:32;;;;;;;9.83;6.67;;;;;;;5.88;80.67;102464.00;6257988;28;20323;-71
2023/03/03 10:43:25;;;;;;;9.67;6.53;;;;;;;6.72;78.80;102456.50;6263311;28;20239;-74
2023/03/03 10:47:17;;;;;;;10.60;6.73;;;;;;;6.09;80.54;102458.53;6249879;28;20956;-70
2023/03/03 10:50:50;;;;;;;6.10;5.13;;;;;;;7.15;77.25;102449.00;6257338;28;20227;-69
2023/03/03 10:54:29;;;;;;;10.20;6.53;;;;;;;7.24;79.21;102450.34;6251186;28;20232;-72
2023/03/03 10:58:00;;;;;;;8.23;5.43;;;;;;;7.06;77.47;102452.16;6253663;28;20223;-69
2023/03/03 11:01:29;;;;;;;16.67;7.17;;;;;;;6.34;79.04;102443.09;6242537;28;20236;-70
2023/03/03 11:05:04;;;;;;;10.47;5.70;;;;;;;6.98;76.51;102438.25;6254349;28;20841;-71
2023/03/03 11:08:30;;;;;;;6.50;5.93;;;;;;;7.84;72.40;102441.84;6258916;28;20644;-71
2023/03/03 11:11:57;;;;;;;11.83;8.90;;;;;;;6.78;76.68;102434.81;6240037;28;20546;-71
2023/03/03 11:15:36;;;;;;;8.67;6.30;;;;;;;6.71;77.28;102442.25;6247934;28;20219;-71
2023/03/03 11:19:08;;;;;;;7.87;6.60;;;;;;;7.73;73.37;102429.94;6256321;28;20449;-73
2023/03/03 11:22:39;;;;;;;15.23;6.57;;;;;;;6.86;76.50;102424.56;6231991;28;20250;-71
2023/03/03 11:26:09;;;;;;;10.47;7.83;;;;;;;5.55;82.20;102434.16;6244848;28;20228;-71
2023/03/03 11:29:43;;;;;;;9.20;7.53;;;;;;;6.14;81.28;102427.09;6264364;28;20227;-72
2023/03/03 11:33:09;;;;;;;14.07;7.20;;;;;;;6.86;79.63;102433.47;6244002;28;20247;-73
2023/03/03 11:36:36;;;;;;;16.73;9.17;;;;;;;7.04;77.98;102426.34;6248999;28;20226;-73
2023/03/03 11:40:03;;;;;;;11.80;8.03;;;;;;;6.64;79.70;102423.84;6258935;28;20310;-71
2023/03/03 11:43:31;;;;;;;8.23;6.60;;;;;;;6.27;80.42;102422.03;6248776;28;20311;-76
2023/03/03 11:46:57;;;;;;;9.37;5.93;;;;;;;6.94;78.30;102412.53;6226881;28;20223;-74
2023/03/03 11:50:22;;;;;;;8.07;5.43;;;;;;;7.17;78.58;102400.66;6255592;28;20539;-74
2023/03/03 11:53:57;;;;;;;9.50;6.33;;;;;;;6.88;80.09;102402.13;6256304;28;20236;-74
2023/03/03 11:57:22;;;;;;;8.50;5.87;;;;;;;7.21;78.81;102384.34;6252527;28;20476;-72
2023/03/03 12:00:47;;;;;;;5.17;4.63;;;;;;;7.28;78.49;102382.19;6253454;28;20232;-73
2023/03/03 12:04:13;;;;;;;9.17;5.00;;;;;;;7.61;77.01;102368.88;6257164;28;20255;-73
2023/03/03 12:07:41;;;;;;;6.80;4.00;;;;;;;6.77;79.78;102377.66;6258452;28;20227;-71
2023/03/03 12:11:10;;;;;;;7.07;4.73;;;;;;;7.49;77.67;102380.25;6240159;28;20230;-73
2023/03/03 12:14:50;;;;;;;9.13;6.43;;;;;;;7.57;77.99;102370.81;6256743;28;20235;-72
2023/03/03 12:18:35;;;;;;;7.53;5.13;;;;;;;7.90;76.90;102378.94;6246868;28;20324;-73
2023/03/03 12:22:15;;;;;;;6.80;5.67;;;;;;;7.94;75.91;102365.25;6244659;28;20616;-71
2023/03/03 12:25:41;;;;;;;9.23;4.97;;;;;;;8.36;74.53;102356.69;6254983;28;20493;-72
2023/03/03 12:29:19;;;;;;;5.80;4.27;;;;;;;8.92;70.26;102345.38;6259141;28;20252;-71
2023/03/03 12:33:15;;;;;;;5.27;4.73;;;;;;;8.83;71.29;102333.34;6243782;28;20232;-70
2023/03/03 12:36:58;;;;;;;8.97;6.13;;;;;;;8.24;72.97;102337.69;6250513;28;20254;-72
2023/03/03 12:40:24;;;;;;;7.37;6.40;;;;;;;8.77;70.59;102327.44;6258578;28;20310;-72
2023/03/03 12:43:58;;;;;;;7.73;5.23;;;;;;;8.90;69.46;102322.22;6245213;28;20475;-73
2023/03/03 12:47:27;;;;;;;8.30;5.07;;;;;;;8.70;70.28;102323.38;6233752;28;21001;-73
2023/03/03 12:50:59;;;;;;;7.37;5.93;;;;;;;9.62;68.08;102323.16;6253619;28;20231;-74
2023/03/03 12:54:38;;;;;;;7.17;4.63;;;;;;;9.78;65.51;102307.81;6249610;28;20219;-73
2023/03/03 12:58:08;;;;;;;5.60;3.80;;;;;;;8.98;68.59;102304.69;6253896;28;20223;-73
2023/03/03 13:01:40;;;;;;;5.43;3.87;;;;;;;9.19;68.05;102289.94;6249978;28;20227;-70
2023/03/03 13:05:16;;;;;;;23.90;6.33;;;;;;;9.71;66.45;102290.31;6268165;28;20641;-70
2023/03/03 13:08:56;;;;;;;6.70;5.43;;;;;;;10.42;63.03;102283.03;6255851;28;20251;-71
2023/03/03 13:12:32;;;;;;;4.60;3.63;;;;;;;10.12;62.92;102285.88;6245358;28;20224;-74
2023/03/03 13:16:00;;;;;;;5.10;1.80;;;;;;;9.78;63.42;102280.00;6243172;28;20318;-73
2023/03/03 13:19:31;;;;;;;5.43;1.90;;;;;;;9.67;63.55;102278.00;6255986;28;20238;-73
2023/03/03 13:22:59;;;;;;;5.90;1.90;;;;;;;8.81;66.41;102285.97;6244586;28;20251;-72
2023/03/03 13:26:25;;;;;;;2.77;1.80;;;;;;;9.35;63.48;102265.66;6247495;28;20495;-73
2023/03/03 13:29:56;;;;;;;2.40;2.20;;;;;;;9.52;62.75;102269.03;6248462;28;20236;-73
2023/03/03 13:33:24;;;;;;;5.20;1.93;;;;;;;9.39;63.69;102276.13;6241271;28;21302;-70
2023/03/03 13:36:53;;;;;;;2.10;1.30;;;;;;;9.46;63.37;102272.13;6250115;28;20321;-72
2023/03/03 13:40:21;;;;;;;1.23;1.13;;;;;;;9.86;62.60;102264.22;6256735;28;20223;-71
2023/03/03 13:43:46;;;;;;;3.90;1.23;;;;;;;9.72;61.79;102269.63;6237776;28;20231;-74
2023/03/03 13:47:16;;;;;;;2.33;1.60;;;;;;;9.40;62.68;102264.44;6243301;28;20241;-75
2023/03/03 13:50:45;;;;;;;2.53;1.53;;;;;;;9.60;61.00;102260.47;6263574;28;20231;-73
2023/03/03 13:54:15;;;;;;;1.50;1.40;;;;;;;10.06;60.03;102250.34;6254985;28;22701;-72
2023/03/03 13:57:59;;;;;;;1.80;1.43;;;;;;;10.11;59.85;102251.81;6252695;28;20243;-75
2023/03/03 14:01:26;;;;;;;0.80;0.80;;;;;;;9.66;61.08;102247.50;6247992;28;20228;-72
2023/03/03 14:04:53;;;;;;;2.53;1.03;;;;;;;9.81;59.95;102239.41;6255434;28;20227;-75
2023/03/03 14:08:25;;;;;;;5.50;1.03;;;;;;;9.65;60.75;102237.72;6252900;28;20223;-75
2023/03/03 14:11:52;;;;;;;1.20;1.10;;;;;;;9.56;59.58;102230.22;6250757;28;20235;-73
2023/03/03 14:15:24;;;;;;;0.87;0.87;;;;;;;9.79;58.13;102225.19;6266321;28;20232;-73
2023/03/03 14:18:55;;;;;;;1.10;1.00;;;;;;;9.47;58.82;102228.06;6258648;28;20346;-75
2023/03/03 14:22:22;;;;;;;0.80;0.80;;;;;;;9.33;60.20;102221.81;6249767;28;20223;-74
2023/03/03 14:25:58;;;;;;;2.80;1.13;;;;;;;9.75;58.54;102229.03;6253749;28;20303;-74
2023/03/03 14:29:30;;;;;;;4.10;0.93;;;;;;;9.63;58.34;102218.09;6254930;28;20232;-73
2023/03/03 14:33:15;;;;;;;2.27;1.33;;;;;;;9.62;58.05;102212.78;6240092;28;21673;-73
2023/03/03 14:36:39;;;;;;;3.40;0.80;;;;;;;9.65;57.56;102209.91;6262495;28;20227;-72
2023/03/03 14:40:12;;;;;;;2.27;1.37;;;;;;;9.62;57.59;102208.28;6264804;28;20259;-73
2023/03/03 14:43:36;;;;;;;0.77;0.77;;;;;;;9.51;58.40;102197.31;6251287;28;20554;-72
2023/03/03 14:47:21;;;;;;;0.77;0.73;;;;;;;9.49;57.87;102188.47;6251259;28;20248;-74
2023/03/03 14:50:50;;;;;;;6.67;1.03;;;;;;;9.89;57.33;102196.72;6265292;28;20318;-73
2023/03/03 14:54:20;;;;;;;2.63;2.00;;;;;;;9.85;55.83;102187.94;6256916;28;20235;-74
2023/03/03 14:57:46;;;;;;;2.40;1.37;;;;;;;10.14;54.61;102194.16;6265211;28;20241;-73
2023/03/03 15:01:17;;;;;;;3.33;1.40;;;;;;;9.91;56.28;102182.16;6258157;28;20232;-74
2023/03/03 15:04:38;;;;;;;0.83;0.83;;;;;;;9.06;59.24;102178.66;6270937;28;20239;-74
2023/03/03 15:08:11;;;;;;;2.40;0.80;;;;;;;9.49;58.11;102180.41;6270662;28;20227;-74
2023/03/03 15:11:33;;;;;;;1.50;1.00;;;;;;;8.90;59.73;102167.13;6257223;28;20231;-73
2023/03/03 15:15:10;;;;;;;2.87;1.07;;;;;;;9.02;59.37;102168.19;6264139;28;20219;-73
2023/03/03 15:18:33;;;;;;;1.03;0.83;;;;;;;8.90;59.93;102158.19;6262114;28;20236;-75
2023/03/03 15:22:04;;;;;;;0.90;0.90;;;;;;;9.47;58.40;102163.47;6255317;28;20306;-74
2023/03/03 15:25:32;;;;;;;1.97;1.80;;;;;;;9.36;58.79;102152.56;6264731;28;20227;-73
2023/03/03 15:29:06;;;;;;;2.40;1.47;;;;;;;9.11;59.74;102162.25;6239219;28;20652;-73
2023/03/03 15:32:30;;;;;;;4.17;1.40;;;;;;;8.99;60.28;102150.41;6239547;28;20221;-73
2023/03/03 15:35:57;;;;;;;1.40;1.30;;;;;;;9.12;59.88;102145.13;6262662;28;20501;-74
2023/03/03 15:39:26;;;;;;;1.63;1.27;;;;;;;9.26;59.45;102156.75;6263860;28;20236;-73
2023/03/03 15:42:52;;;;;;;2.30;1.37;;;;;;;9.55;58.45;102141.47;6269546;28;20594;-74
2023/03/03 15:46:24;;;;;;;6.17;2.10;;;;;;;9.37;59.47;102143.50;6253369;28;20276;-73
2023/03/03 15:50:07;;;;;;;3.10;2.00;;;;;;;9.15;59.72;102148.50;6265849;28;20652;-74
2023/03/03 15:53:48;;;;;;;2.07;1.90;;;;;;;9.04;59.53;102144.75;6260856;28;20239;-74
2023/03/03 15:57:17;;;;;;;4.30;1.40;;;;;;;8.97;60.32;102130.81;6241307;28;20226;-73
2023/03/03 16:00:53;;;;;;;3.23;1.67;;;;;;;8.97;60.54;102135.34;6258620;28;20310;-75
2023/03/03 16:04:18;;;;;;;4.10;2.47;;;;;;;8.84;61.03;102133.41;6255799;28;20536;-74
2023/03/03 16:07:49;;;;;;;3.27;1.20;;;;;;;8.89;61.60;102130.44;6244839;28;20239;-74
2023/03/03 16:11:15;;;;;;;2.27;2.17;;;;;;;9.48;62.67;102137.44;6236460;28;20231;-76